Time;durP1;ratioP1;P1;durP2;ratioP2;P2;SDS_P1;SDS_P2;PMS_P1;PMS_P2;Temp;Humidity;BMP_temperature;BMP_pressure;BME280_temperature;BME280_humidity;BME280_pressure;Samples;Min_cycle;Max_cycle;Signal;HPM_P1;HPM_P2
2022/06/08 00:00:56;;;;;;;9.88;2.30;;;18.70;99.90;;;;;;4922300;29;20027;-80
2022/06/08 00:03:31;;;;;;;15.85;2.20;;;18.70;99.90;;;;;;4918051;29;20048;-80
2022/06/08 00:05:57;;;;;;;12.77;2.38;;;18.70;99.90;;;;;;4921959;29;20028;-80
2022/06/08 00:08:22;;;;;;;13.00;2.75;;;18.70;99.90;;;;;;4922101;29;20020;-80
2022/06/08 00:10:48;;;;;;;12.50;2.53;;;18.60;99.90;;;;;;4924854;29;20028;-80
2022/06/08 00:13:14;;;;;;;14.73;3.22;;;18.60;99.90;;;;;;4923398;29;20141;-80
2022/06/08 00:15:41;;;;;;;12.40;2.83;;;18.50;99.90;;;;;;4923654;29;20028;-80
2022/06/08 00:18:07;;;;;;;21.08;3.30;;;18.40;99.90;;;;;;4925529;29;20028;-80
2022/06/08 00:20:33;;;;;;;14.82;3.00;;;18.30;99.90;;;;;;4923726;29;20020;-79
2022/06/08 00:22:59;;;;;;;20.27;2.90;;;18.30;99.90;;;;;;4923910;29;20039;-79
2022/06/08 00:25:25;;;;;;;23.23;4.43;;;18.10;99.90;;;;;;4924070;29;20474;-79
2022/06/08 00:27:50;;;;;;;19.23;3.90;;;18.00;99.90;;;;;;4921544;29;20024;-79
2022/06/08 00:30:16;;;;;;;18.63;3.90;;;17.90;99.90;;;;;;4925007;29;20024;-79
2022/06/08 00:32:42;;;;;;;18.95;4.15;;;17.80;99.90;;;;;;4925177;29;20215;-79
2022/06/08 00:35:09;;;;;;;18.08;4.40;;;17.70;99.90;;;;;;4923434;29;20165;-79
2022/06/08 00:37:35;;;;;;;29.45;4.68;;;17.60;99.90;;;;;;4922979;29;20412;-79
2022/06/08 00:40:00;;;;;;;24.38;6.25;;;17.50;99.90;;;;;;4924313;29;20016;-79
2022/06/08 00:42:26;;;;;;;26.23;5.55;;;17.40;99.90;;;;;;4923369;29;20035;-79
2022/06/08 00:44:56;;;;;;;14.32;4.20;;;17.30;99.90;;;;;;4925790;29;20020;-79
2022/06/08 00:47:27;;;;;;;15.95;4.03;;;17.10;99.90;;;;;;4923779;29;20107;-79
2022/06/08 00:50:11;;;;;;;35.72;6.20;;;17.00;99.90;;;;;;4922861;29;20052;-79
2022/06/08 00:52:37;;;;;;;35.47;6.00;;;17.00;99.90;;;;;;4923687;29;20032;-79
2022/06/08 00:55:07;;;;;;;28.17;5.70;;;17.00;99.90;;;;;;4923488;29;20030;-79
2022/06/08 00:57:51;;;;;;;36.28;7.18;;;16.90;99.90;;;;;;4924326;29;20020;-79
2022/06/08 01:00:19;;;;;;;;;;;16.80;99.90;;;;;;4924228;29;20030;-80
2022/06/08 01:02:45;;;;;;;25.55;5.28;;;16.70;99.90;;;;;;4925265;29;19907;-80
2022/06/08 01:05:28;;;;;;;32.70;6.47;;;16.60;99.90;;;;;;4923399;29;20091;-83
2022/06/08 01:07:57;;;;;;;30.80;5.93;;;16.50;99.90;;;;;;4923779;29;20461;-80
2022/06/08 01:10:36;;;;;;;38.50;7.13;;;16.50;99.90;;;;;;4923711;29;20100;-80
2022/06/08 01:13:05;;;;;;;37.25;6.38;;;16.60;99.90;;;;;;4923740;29;20034;-80
2022/06/08 01:15:33;;;;;;;45.10;7.57;;;16.60;99.90;;;;;;4917456;29;20024;-82
2022/06/08 01:17:58;;;;;;;39.78;6.93;;;16.60;99.90;;;;;;4923979;29;20046;-80
2022/06/08 01:20:25;;;;;;;49.33;6.57;;;16.60;99.90;;;;;;4923072;29;20024;-80
2022/06/08 01:22:51;;;;;;;30.80;5.90;;;16.60;99.90;;;;;;4923212;29;20039;-80
2022/06/08 01:25:18;;;;;;;32.38;6.15;;;16.60;99.90;;;;;;4924102;29;20485;-80
2022/06/08 01:27:52;;;;;;;31.05;6.13;;;16.60;99.90;;;;;;4922193;29;20098;-80
2022/06/08 01:30:23;;;;;;;;;;;16.70;99.90;;;;;;4921712;29;20026;-80
2022/06/08 01:33:03;;;;;;;38.45;8.60;;;16.60;99.90;;;;;;4923838;29;19919;-80
2022/06/08 01:35:38;;;;;;;39.95;9.55;;;16.60;99.90;;;;;;4921893;29;20256;-80
2022/06/08 01:38:19;;;;;;;42.55;8.93;;;16.60;99.90;;;;;;4922761;29;20024;-81
2022/06/08 01:41:00;;;;;;;31.95;8.82;;;16.50;99.90;;;;;;4921106;29;20493;-80
2022/06/08 01:43:25;;;;;;;43.20;8.88;;;16.50;99.90;;;;;;4922830;29;20082;-80
2022/06/08 01:45:59;;;;;;;39.33;9.10;;;16.50;99.90;;;;;;4923637;29;20040;-80
2022/06/08 01:48:44;;;;;;;48.53;9.20;;;16.60;99.90;;;;;;4922434;29;20367;-80
2022/06/08 01:51:23;;;;;;;42.72;7.78;;;16.60;99.90;;;;;;4923018;29;20509;-80
2022/06/08 01:54:33;;;;;;;36.88;9.07;;;16.60;99.90;;;;;;4920832;29;20050;-80
2022/06/08 01:57:13;;;;;;;45.47;8.82;;;16.60;99.90;;;;;;4921665;29;20036;-80
2022/06/08 01:59:45;;;;;;;45.63;9.98;;;16.60;99.90;;;;;;4921628;29;20115;-80
2022/06/08 02:02:33;;;;;;;38.35;8.43;;;16.50;99.90;;;;;;4937511;29;20020;-80
2022/06/08 02:05:04;;;;;;;46.85;8.88;;;16.40;99.90;;;;;;4918951;29;20069;-83
2022/06/08 02:08:01;;;;;;;35.95;8.32;;;16.40;99.90;;;;;;4921796;29;20028;-80
2022/06/08 02:10:38;;;;;;;38.85;9.00;;;16.40;99.90;;;;;;4919122;29;20336;-80
2022/06/08 02:13:22;;;;;;;40.03;8.43;;;16.40;99.90;;;;;;4919106;29;20111;-80
2022/06/08 02:15:56;;;;;;;37.50;9.25;;;16.50;99.90;;;;;;4923681;29;20032;-80
2022/06/08 02:18:28;;;;;;;33.55;7.78;;;16.50;99.90;;;;;;4920232;29;20088;-80
2022/06/08 02:21:01;;;;;;;28.40;7.50;;;16.50;99.90;;;;;;4923146;29;20475;-80
2022/06/08 02:23:37;;;;;;;37.05;7.75;;;16.50;99.90;;;;;;4922540;29;20062;-80
2022/06/08 02:26:21;;;;;;;32.90;8.38;;;16.40;99.90;;;;;;4921398;29;20023;-80
2022/06/08 02:28:57;;;;;;;29.98;7.32;;;16.40;99.90;;;;;;4920266;29;20095;-81
2022/06/08 02:31:32;;;;;;;35.60;9.68;;;16.40;99.90;;;;;;4921088;29;20051;-81
2022/06/08 02:37:00;;;;;;;48.33;10.25;;;16.50;99.90;;;;;;4921507;29;20230;-80
2022/06/08 02:39:30;;;;;;;39.47;10.25;;;16.50;99.90;;;;;;4921607;29;20567;-80
2022/06/08 02:42:03;;;;;;;52.47;10.20;;;16.60;99.90;;;;;;4921895;29;20026;-80
2022/06/08 02:44:31;;;;;;;42.35;9.98;;;16.60;99.90;;;;;;4920287;29;20129;-80
2022/06/08 02:47:16;;;;;;;40.20;10.65;;;16.60;99.90;;;;;;4923067;29;20175;-80
2022/06/08 02:49:42;;;;;;;40.92;10.77;;;16.70;99.90;;;;;;4920826;29;20491;-81
2022/06/08 02:52:21;;;;;;;49.13;11.48;;;16.60;99.90;;;;;;4920004;29;20032;-81
2022/06/08 02:54:46;;;;;;;42.80;8.68;;;16.70;99.90;;;;;;4922471;29;20035;-80
2022/06/08 02:57:32;;;;;;;44.78;8.82;;;16.70;99.90;;;;;;4921787;29;20024;-81
2022/06/08 03:00:05;;;;;;;41.78;9.05;;;16.70;99.90;;;;;;4920652;29;20056;-80
2022/06/08 03:02:40;;;;;;;40.38;8.65;;;16.70;99.90;;;;;;4922414;29;20027;-81
2022/06/08 03:05:15;;;;;;;37.72;9.82;;;16.80;99.90;;;;;;4921164;29;20432;-81
2022/06/08 03:07:49;;;;;;;43.40;8.65;;;16.80;99.90;;;;;;4918773;29;20027;-81
2022/06/08 03:10:17;;;;;;;46.28;8.65;;;16.90;99.90;;;;;;4919579;29;20027;-80
2022/06/08 03:12:51;;;;;;;42.42;8.98;;;16.90;99.90;;;;;;4921866;29;20100;-80
2022/06/08 03:15:21;;;;;;;34.72;8.63;;;16.90;99.90;;;;;;4917713;29;20466;-80
2022/06/08 03:17:49;;;;;;;35.70;8.70;;;16.90;99.90;;;;;;4921761;29;20043;-80
2022/06/08 03:20:16;;;;;;;37.63;8.27;;;16.90;99.90;;;;;;4921982;29;20020;-80
2022/06/08 03:22:42;;;;;;;37.67;7.85;;;17.00;99.90;;;;;;4921003;29;20011;-81
2022/06/08 03:25:08;;;;;;;41.83;9.45;;;17.00;99.90;;;;;;4921374;29;20424;-81
2022/06/08 03:27:37;;;;;;;42.50;8.68;;;17.00;99.90;;;;;;4922248;29;20028;-80
2022/06/08 03:30:05;;;;;;;52.75;8.48;;;17.00;99.90;;;;;;4920020;29;20031;-81
2022/06/08 03:32:31;;;;;;;46.47;7.95;;;17.00;99.90;;;;;;4923770;29;20046;-81
2022/06/08 03:34:56;;;;;;;38.83;7.78;;;17.00;99.90;;;;;;4920627;29;20110;-81
2022/06/08 03:37:23;;;;;;;40.10;8.57;;;17.00;99.90;;;;;;4922481;29;20517;-81
2022/06/08 03:39:49;;;;;;;37.05;7.97;;;17.10;99.90;;;;;;4921519;29;20079;-81
2022/06/08 03:42:14;;;;;;;35.28;7.85;;;17.00;99.90;;;;;;4922090;29;20444;-81
2022/06/08 03:44:40;;;;;;;42.13;8.13;;;17.10;99.90;;;;;;4921689;29;20075;-81
2022/06/08 03:47:12;;;;;;;43.80;8.30;;;17.10;99.90;;;;;;4925924;29;20064;-81
2022/06/08 03:49:39;;;;;;;43.67;7.43;;;17.10;99.90;;;;;;4926265;29;20020;-81
2022/06/08 03:52:10;;;;;;;46.85;7.63;;;17.10;99.90;;;;;;4924838;29;20038;-82
2022/06/08 03:54:40;;;;;;;36.15;6.75;;;17.10;99.90;;;;;;4924492;29;20544;-81
2022/06/08 03:57:08;;;;;;;30.25;5.40;;;17.10;99.90;;;;;;4924026;29;20031;-81
2022/06/08 03:59:38;;;;;;;28.20;5.45;;;17.10;99.90;;;;;;4924549;29;20020;-81
2022/06/08 04:02:04;;;;;;;31.73;5.60;;;17.20;99.90;;;;;;4925662;29;20512;-81
2022/06/08 04:04:30;;;;;;;29.52;5.13;;;17.20;99.90;;;;;;4920815;29;20445;-81
2022/06/08 04:06:56;;;;;;;24.23;5.22;;;17.10;99.90;;;;;;4925092;29;20036;-81
2022/06/08 04:09:21;;;;;;;32.10;5.55;;;17.10;99.90;;;;;;4924713;29;20027;-81
2022/06/08 04:11:47;;;;;;;23.08;4.93;;;17.10;99.90;;;;;;4925451;29;20042;-81
2022/06/08 04:14:13;;;;;;;20.60;5.05;;;17.10;99.90;;;;;;4924738;29;20031;-81
2022/06/08 04:16:38;;;;;;;34.90;7.07;;;17.10;99.90;;;;;;4923694;29;20027;-81
2022/06/08 04:19:04;;;;;;;28.67;6.47;;;17.20;99.90;;;;;;4926153;29;20066;-81
2022/06/08 04:21:30;;;;;;;27.85;5.57;;;17.20;99.90;;;;;;4925004;29;20052;-81
2022/06/08 04:23:56;;;;;;;26.10;4.88;;;17.20;99.90;;;;;;4924697;29;20032;-81
2022/06/08 04:26:22;;;;;;;33.55;5.90;;;17.20;99.90;;;;;;4923814;29;20024;-81
2022/06/08 04:28:48;;;;;;;27.83;5.18;;;17.30;99.90;;;;;;4924290;29;20020;-80
2022/06/08 04:31:14;;;;;;;26.95;4.88;;;17.30;99.90;;;;;;4923617;29;20083;-80
2022/06/08 04:33:40;;;;;;;22.60;3.97;;;17.20;99.90;;;;;;4924683;29;20028;-80
2022/06/08 04:36:07;;;;;;;23.23;4.05;;;17.20;99.90;;;;;;4925164;29;20012;-80
2022/06/08 04:38:33;;;;;;;22.58;4.50;;;17.30;99.90;;;;;;4924881;29;20031;-80
2022/06/08 04:41:00;;;;;;;27.45;3.90;;;17.30;99.90;;;;;;4923481;29;20032;-80
2022/06/08 04:43:26;;;;;;;23.45;3.80;;;17.30;99.90;;;;;;4923384;29;20016;-82
2022/06/08 04:45:51;;;;;;;18.98;3.80;;;17.30;99.90;;;;;;4924076;29;20103;-81
2022/06/08 04:48:17;;;;;;;10.77;2.65;;;17.30;99.90;;;;;;4924586;29;20531;-80
2022/06/08 04:50:43;;;;;;;17.20;3.22;;;17.10;99.90;;;;;;4923958;29;20032;-80
2022/06/08 04:53:09;;;;;;;11.00;3.10;;;16.90;99.90;;;;;;4924255;29;20493;-81
2022/06/08 04:55:35;;;;;;;18.23;3.85;;;16.90;99.90;;;;;;4922391;29;20031;-81
2022/06/08 04:58:01;;;;;;;22.27;4.75;;;17.00;99.90;;;;;;4923798;29;20500;-81
2022/06/08 05:00:27;;;;;;;17.27;5.22;;;17.10;99.90;;;;;;4924901;29;20016;-81
2022/06/08 05:02:54;;;;;;;22.27;4.10;;;17.10;99.90;;;;;;4922901;29;20027;-81
2022/06/08 05:05:26;;;;;;;20.95;3.78;;;17.10;99.90;;;;;;4923365;29;20028;-81
2022/06/08 05:07:53;;;;;;;24.02;3.83;;;17.10;99.90;;;;;;4923888;29;20028;-81
2022/06/08 05:10:21;;;;;;;17.38;4.80;;;17.20;99.90;;;;;;4923231;29;20016;-81
2022/06/08 05:12:46;;;;;;;19.13;4.85;;;17.30;99.90;;;;;;4924248;29;20034;-80
2022/06/08 05:15:22;;;;;;;27.58;5.07;;;17.20;99.90;;;;;;4922500;29;20020;-80
2022/06/08 05:17:48;;;;;;;26.55;6.22;;;17.30;99.90;;;;;;4923949;29;20019;-80
2022/06/08 05:20:16;;;;;;;27.88;6.43;;;17.30;99.90;;;;;;4923652;29;20027;-82
2022/06/08 05:22:42;;;;;;;21.50;5.60;;;17.30;99.90;;;;;;4923088;29;20048;-82
2022/06/08 05:25:11;;;;;;;25.30;5.22;;;17.30;99.90;;;;;;4932181;29;20092;-83
2022/06/08 05:27:38;;;;;;;28.40;4.97;;;17.20;99.90;;;;;;4924018;29;20028;-84
2022/06/08 05:30:05;;;;;;;19.58;4.75;;;17.30;99.90;;;;;;4927302;29;20083;-84
2022/06/08 05:32:30;;;;;;;11.65;3.20;;;17.30;99.90;;;;;;4935678;29;20071;-91
2022/06/08 05:34:56;;;;;;;13.18;3.28;;;17.20;99.90;;;;;;4921161;29;20070;-82
2022/06/08 05:37:22;;;;;;;18.27;3.97;;;17.20;99.90;;;;;;4922622;29;20031;-82
2022/06/08 05:39:47;;;;;;;15.63;4.10;;;17.30;99.90;;;;;;4922299;29;20016;-83
2022/06/08 05:42:13;;;;;;;23.48;3.90;;;17.40;99.90;;;;;;4922836;29;20474;-82
2022/06/08 05:44:39;;;;;;;22.00;3.88;;;17.40;99.90;;;;;;4922082;29;20028;-82
2022/06/08 05:47:05;;;;;;;21.15;5.00;;;17.40;99.90;;;;;;4924188;29;20027;-82
2022/06/08 05:49:33;;;;;;;17.60;3.50;;;17.50;99.90;;;;;;4929747;29;20058;-82
2022/06/08 05:51:59;;;;;;;20.55;3.88;;;17.40;99.90;;;;;;4932776;29;20111;-82
2022/06/08 05:54:25;;;;;;;16.95;3.80;;;17.40;99.90;;;;;;4932658;29;20020;-83
2022/06/08 05:56:51;;;;;;;26.30;4.05;;;17.50;99.90;;;;;;4933415;29;20031;-83
2022/06/08 05:59:17;;;;;;;19.42;3.45;;;17.50;99.90;;;;;;4933120;29;20032;-82
2022/06/08 06:01:42;;;;;;;20.58;4.68;;;17.50;99.90;;;;;;4929326;29;20024;-83
2022/06/08 06:04:08;;;;;;;18.80;2.95;;;17.50;99.90;;;;;;4933289;29;20021;-81
2022/06/08 06:06:35;;;;;;;16.27;3.33;;;17.50;99.90;;;;;;4932785;29;20120;-82
2022/06/08 06:09:03;;;;;;;15.40;2.65;;;17.50;99.90;;;;;;4934605;29;20035;-81
2022/06/08 06:11:29;;;;;;;12.43;3.08;;;17.50;99.90;;;;;;4932486;29;20031;-82
2022/06/08 06:13:56;;;;;;;19.48;4.53;;;17.50;99.90;;;;;;4929850;29;20177;-82
2022/06/08 06:16:22;;;;;;;16.45;3.30;;;17.50;99.90;;;;;;4932433;29;20032;-81
2022/06/08 06:18:48;;;;;;;13.90;3.30;;;17.60;99.90;;;;;;4931870;29;20211;-81
2022/06/08 06:21:17;;;;;;;16.58;2.90;;;17.70;99.90;;;;;;4932929;29;20024;-81
2022/06/08 06:23:42;;;;;;;17.23;2.75;;;17.70;99.90;;;;;;4932531;29;20094;-81
2022/06/08 06:26:08;;;;;;;16.85;3.58;;;17.80;99.90;;;;;;4932730;29;20034;-81
2022/06/08 06:28:34;;;;;;;17.65;2.53;;;17.90;99.90;;;;;;4929250;29;20323;-81
2022/06/08 06:31:00;;;;;;;15.20;2.42;;;18.00;99.90;;;;;;4931095;29;20019;-81
2022/06/08 06:33:25;;;;;;;13.93;2.55;;;18.10;99.90;;;;;;4932512;29;20031;-81
2022/06/08 06:35:51;;;;;;;18.95;2.88;;;18.20;99.90;;;;;;4935287;29;20024;-81
2022/06/08 06:38:16;;;;;;;15.38;2.45;;;18.10;99.90;;;;;;4934599;29;20115;-81
2022/06/08 06:40:42;;;;;;;13.32;2.20;;;18.10;99.90;;;;;;4924485;29;20031;-81
2022/06/08 06:43:10;;;;;;;13.15;2.42;;;18.20;99.90;;;;;;4919851;29;20588;-81
2022/06/08 06:45:36;;;;;;;12.10;1.92;;;18.10;99.90;;;;;;4920335;29;20067;-81
2022/06/08 06:48:01;;;;;;;9.80;2.42;;;18.20;99.90;;;;;;4923129;29;20027;-81
2022/06/08 06:50:27;;;;;;;10.90;2.70;;;18.20;99.90;;;;;;4921080;29;20023;-82
2022/06/08 06:52:53;;;;;;;10.70;2.50;;;18.20;99.90;;;;;;4921554;29;20040;-82
2022/06/08 06:55:24;;;;;;;13.90;1.95;;;18.10;99.90;;;;;;4920779;29;20086;-81
2022/06/08 06:57:50;;;;;;;12.60;2.40;;;18.00;99.90;;;;;;4921665;29;20082;-81
2022/06/08 07:00:17;;;;;;;13.27;3.17;;;18.00;99.90;;;;;;4923442;29;20047;-82
2022/06/08 07:02:44;;;;;;;13.95;2.83;;;18.00;99.90;;;;;;4923420;29;20012;-82
2022/06/08 07:05:20;;;;;;;11.13;2.45;;;18.10;99.90;;;;;;4920172;29;20029;-82
2022/06/08 07:07:47;;;;;;;14.18;2.28;;;18.10;99.90;;;;;;4920004;29;20099;-82
2022/06/08 07:10:13;;;;;;;9.55;1.85;;;18.10;99.90;;;;;;4921729;29;20027;-82
2022/06/08 07:12:38;;;;;;;11.57;1.98;;;18.20;99.90;;;;;;4923031;29;20040;-83
2022/06/08 07:15:05;;;;;;;9.20;1.83;;;18.20;99.90;;;;;;4921083;29;20036;-82
2022/06/08 07:17:30;;;;;;;14.90;2.42;;;18.40;99.90;;;;;;4922228;29;20490;-82
2022/06/08 07:19:56;;;;;;;10.00;2.72;;;18.50;99.90;;;;;;4923374;29;20060;-82
2022/06/08 07:22:21;;;;;;;8.25;2.22;;;18.40;99.90;;;;;;4927040;29;20036;-83
2022/06/08 07:24:47;;;;;;;8.77;2.47;;;18.40;99.90;;;;;;4926475;29;20028;-83
2022/06/08 07:27:13;;;;;;;12.13;2.47;;;18.40;99.90;;;;;;4925407;29;20374;-83
2022/06/08 07:29:39;;;;;;;10.23;2.80;;;18.40;99.90;;;;;;4924388;29;20016;-83
2022/06/08 07:32:05;;;;;;;15.63;2.47;;;18.70;99.90;;;;;;4925817;29;20055;-83
2022/06/08 07:34:31;;;;;;;8.93;1.98;;;18.90;99.90;;;;;;4926592;29;20020;-83
2022/06/08 07:36:57;;;;;;;15.32;2.22;;;18.90;99.90;;;;;;4940813;29;20040;-84
2022/06/08 07:39:24;;;;;;;10.00;2.13;;;19.00;99.90;;;;;;4924423;29;20068;-84
2022/06/08 07:41:49;;;;;;;8.65;2.25;;;19.00;99.90;;;;;;4925588;29;20028;-84
2022/06/08 07:44:17;;;;;;;8.52;1.67;;;19.00;99.90;;;;;;4923917;29;20030;-85
2022/06/08 07:46:43;;;;;;;6.70;1.73;;;19.00;99.90;;;;;;4941622;29;20032;-84
2022/06/08 07:51:59;;;;;;;9.75;2.00;;;18.80;99.90;;;;;;4926247;29;20052;-85
2022/06/08 07:54:27;;;;;;;8.18;1.67;;;18.90;99.90;;;;;;4923809;29;20017;-85
2022/06/08 07:56:54;;;;;;;12.80;2.28;;;18.80;99.90;;;;;;4926299;29;20405;-89
2022/06/08 07:59:22;;;;;;;6.38;1.27;;;18.90;99.90;;;;;;4925844;29;20020;-85
2022/06/08 08:01:48;;;;;;;6.30;1.70;;;18.90;99.90;;;;;;4924774;29;20032;-85
2022/06/08 08:04:14;;;;;;;11.07;1.80;;;18.80;99.90;;;;;;4936243;29;20020;-85
2022/06/08 08:06:40;;;;;;;9.07;1.85;;;18.90;99.90;;;;;;4924450;29;20039;-85
2022/06/08 08:09:13;;;;;;;11.73;2.58;;;19.10;99.90;;;;;;4924320;29;20075;-85
2022/06/08 08:11:39;;;;;;;10.02;2.00;;;19.30;99.90;;;;;;4925111;29;20476;-85
2022/06/08 08:14:05;;;;;;;11.57;1.67;;;19.40;99.90;;;;;;4924756;29;20012;-86
2022/06/08 08:16:31;;;;;;;10.63;1.90;;;19.40;99.90;;;;;;4923958;29;20511;-85
2022/06/08 08:18:58;;;;;;;7.60;1.55;;;19.50;99.90;;;;;;4922037;29;20036;-86
2022/06/08 08:21:24;;;;;;;7.45;1.80;;;19.40;99.90;;;;;;4925211;29;20106;-85
2022/06/08 08:23:50;;;;;;;7.18;1.70;;;19.20;99.90;;;;;;4925041;29;20111;-85
2022/06/08 08:26:16;;;;;;;9.32;1.40;;;19.00;99.90;;;;;;4924015;29;20536;-85
2022/06/08 08:28:42;;;;;;;14.68;2.38;;;19.00;99.90;;;;;;4924549;29;20048;-85
2022/06/08 08:31:08;;;;;;;9.43;1.90;;;19.10;99.90;;;;;;4921178;29;20405;-86
2022/06/08 08:33:33;;;;;;;7.13;2.00;;;19.20;99.90;;;;;;4924255;29;20024;-85
2022/06/08 08:35:59;;;;;;;7.38;2.13;;;19.30;99.90;;;;;;4940446;29;20549;-85
2022/06/08 08:38:25;;;;;;;10.38;1.77;;;19.40;99.90;;;;;;4925486;29;20508;-86
2022/06/08 08:41:00;;;;;;;7.57;1.85;;;19.40;99.90;;;;;;4922698;29;20497;-85
2022/06/08 08:43:34;;;;;;;11.57;1.90;;;19.30;99.90;;;;;;4922631;29;20054;-85
2022/06/08 08:46:06;;;;;;;;;;;19.30;99.90;;;;;;4922264;29;20047;-85
2022/06/08 08:48:58;;;;;;;8.55;2.20;;;19.40;99.90;;;;;;4923562;29;19907;-85
2022/06/08 08:51:32;;;;;;;7.60;2.05;;;19.30;99.90;;;;;;4919234;29;20043;-85
2022/06/08 08:54:15;;;;;;;10.85;2.47;;;19.10;99.90;;;;;;4923365;29;20472;-85
2022/06/08 08:56:42;;;;;;;15.55;2.40;;;19.00;99.90;;;;;;4922008;29;20024;-85
2022/06/08 08:59:22;;;;;;;9.57;1.98;;;19.20;99.90;;;;;;4922760;29;20063;-86
2022/06/08 09:01:52;;;;;;;8.93;2.00;;;19.40;99.90;;;;;;4923895;29;20036;-85
2022/06/08 09:04:31;;;;;;;8.90;1.80;;;19.40;99.90;;;;;;4924435;29;20114;-88
2022/06/08 09:07:00;;;;;;;10.02;2.42;;;19.60;99.90;;;;;;4922197;29;20028;-85
2022/06/08 09:09:32;;;;;;;12.80;2.65;;;19.80;99.90;;;;;;4938655;28;20035;-86
2022/06/08 09:11:59;;;;;;;10.10;2.67;;;20.00;99.90;;;;;;4919899;29;20050;-87
2022/06/08 09:14:43;;;;;;;7.88;2.28;;;20.10;99.90;;;;;;4924411;29;20012;-86
2022/06/08 09:17:17;;;;;;;7.18;2.20;;;20.10;99.90;;;;;;4923342;29;20029;-86
2022/06/08 09:19:47;;;;;;;11.75;2.45;;;19.80;99.90;;;;;;4921727;29;20028;-86
2022/06/08 09:22:13;;;;;;;8.93;1.80;;;19.70;99.90;;;;;;4938393;29;20373;-86
2022/06/08 09:24:53;;;;;;;6.10;1.83;;;19.90;99.90;;;;;;4924059;29;20030;-86
2022/06/08 09:27:28;;;;;;;6.28;1.63;;;20.00;99.90;;;;;;4923941;29;20035;-86
2022/06/08 09:30:28;;;;;;;5.82;1.20;;;20.10;99.90;;;;;;4920537;29;20020;-86
2022/06/08 09:33:25;;;;;;;4.28;1.23;;;20.40;99.90;;;;;;4923892;29;20116;-86
2022/06/08 09:35:55;;;;;;;5.28;1.45;;;20.50;99.90;;;;;;4922145;29;20091;-85
2022/06/08 09:38:24;;;;;;;8.70;1.85;;;20.70;99.90;;;;;;4923621;29;20035;-86
2022/06/08 09:41:13;;;;;;;4.78;1.05;;;20.70;99.90;;;;;;4921342;29;20016;-86
2022/06/08 09:44:00;;;;;;;6.72;1.58;;;20.60;99.90;;;;;;4939329;28;20489;-86
2022/06/08 09:52:46;;;;;;;5.25;1.13;;;20.50;99.90;;;;;;4922290;29;20412;-86
2022/06/08 09:55:34;;;;;;;6.40;1.20;;;20.40;99.90;;;;;;4921678;29;20024;-86
2022/06/08 09:58:20;;;;;;;9.38;1.40;;;20.30;99.90;;;;;;4924203;29;20038;-85
2022/06/08 10:01:10;;;;;;;5.10;1.67;;;20.40;99.90;;;;;;4934989;29;20024;-86
2022/06/08 10:03:56;;;;;;;6.43;1.38;;;20.40;99.90;;;;;;4922539;29;20071;-85
2022/06/08 10:06:28;;;;;;;11.25;1.42;;;20.20;99.90;;;;;;4940636;28;20028;-85
2022/06/08 10:09:00;;;;;;;11.43;1.55;;;20.10;99.90;;;;;;4923333;29;20103;-85
2022/06/08 10:11:43;;;;;;;7.45;1.55;;;19.80;99.90;;;;;;4923120;29;20062;-86
2022/06/08 10:14:38;;;;;;;7.95;1.67;;;19.70;99.90;;;;;;4923771;29;20040;-85
2022/06/08 10:17:21;;;;;;;6.55;1.23;;;19.70;99.90;;;;;;4936568;29;20024;-86
2022/06/08 10:20:06;;;;;;;10.00;1.65;;;19.90;99.90;;;;;;4920471;29;20031;-86
2022/06/08 10:22:38;;;;;;;11.23;2.05;;;20.20;99.90;;;;;;4920036;29;20110;-85
2022/06/08 10:25:21;;;;;;;10.93;1.80;;;20.30;99.90;;;;;;4937819;29;20034;-86
2022/06/08 10:27:57;;;;;;;9.73;2.10;;;20.20;99.90;;;;;;4920024;29;20020;-85
2022/06/08 10:30:41;;;;;;;12.70;2.70;;;19.90;99.90;;;;;;4920854;29;20067;-87
2022/06/08 10:33:16;;;;;;;11.45;2.00;;;19.80;99.90;;;;;;4921480;29;20518;-86
2022/06/08 10:35:46;;;;;;;11.13;1.92;;;19.70;99.90;;;;;;4920251;29;20028;-85
2022/06/08 10:38:33;;;;;;;11.18;1.83;;;19.60;99.90;;;;;;4928031;29;20493;-85
2022/06/08 10:42:39;;;;;;;11.00;1.70;;;19.50;99.90;;;;;;4914118;29;20035;-85
2022/06/08 10:43:55;;;;;;;10.55;2.05;;;19.70;99.90;;;;;;4912064;29;20020;-85
2022/06/08 10:46:42;;;;;;;11.65;3.03;;;19.90;99.90;;;;;;4908811;29;20028;-85
2022/06/08 10:49:30;;;;;;;13.32;1.88;;;20.00;99.90;;;;;;4908513;29;20043;-86
2022/06/08 10:52:18;;;;;;;10.98;2.30;;;20.20;99.90;;;;;;4913792;29;20043;-85
2022/06/08 10:54:57;;;;;;;12.98;1.85;;;20.50;99.90;;;;;;4912941;29;20084;-85
2022/06/08 10:57:39;;;;;;;11.25;1.98;;;20.60;99.90;;;;;;4913999;29;20111;-85
2022/06/08 11:00:19;;;;;;;11.10;2.08;;;20.80;99.90;;;;;;4917585;29;20024;-86
2022/06/08 11:03:02;;;;;;;10.57;1.98;;;20.90;99.90;;;;;;4913934;29;20039;-84
2022/06/08 11:05:35;;;;;;;11.52;2.03;;;21.00;99.90;;;;;;4916517;29;20032;-84
2022/06/08 11:08:00;;;;;;;13.40;2.40;;;20.90;99.90;;;;;;4912608;29;20032;-84
2022/06/08 11:10:45;;;;;;;13.30;2.03;;;20.80;99.90;;;;;;4913920;29;20035;-84
2022/06/08 11:13:22;;;;;;;14.65;2.35;;;20.90;99.90;;;;;;4913701;29;20123;-85
2022/06/08 11:16:16;;;;;;;12.80;2.20;;;21.00;99.90;;;;;;4913224;29;20020;-87
2022/06/08 11:18:45;;;;;;;12.43;2.42;;;21.00;99.90;;;;;;4913754;29;20024;-85
2022/06/08 11:21:14;;;;;;;10.30;1.58;;;21.00;99.90;;;;;;4913607;29;20036;-85
2022/06/08 11:23:44;;;;;;;10.20;1.70;;;21.00;99.90;;;;;;4939473;28;20434;-85
2022/06/08 11:26:24;;;;;;;11.27;1.75;;;20.90;99.90;;;;;;4907822;29;20340;-85
2022/06/08 11:28:58;;;;;;;8.95;1.27;;;20.90;99.90;;;;;;4909100;29;20039;-85
2022/06/08 11:31:29;;;;;;;11.33;2.07;;;20.80;99.90;;;;;;4913453;29;20123;-86
2022/06/08 11:34:16;;;;;;;7.63;1.38;;;20.50;99.90;;;;;;4913394;29;20036;-85
2022/06/08 11:37:12;;;;;;;8.85;1.70;;;20.40;99.90;;;;;;4909869;29;20096;-85
2022/06/08 11:40:00;;;;;;;9.30;1.67;;;20.40;99.90;;;;;;4920812;29;20469;-86
2022/06/08 11:42:33;;;;;;;10.57;1.92;;;20.20;99.90;;;;;;4943844;28;20028;-86
2022/06/08 11:45:21;;;;;;;9.65;1.60;;;20.30;99.90;;;;;;4913572;29;20031;-85
2022/06/08 11:48:02;;;;;;;8.98;1.52;;;20.30;99.90;;;;;;4913433;29;20524;-87
2022/06/08 11:50:42;;;;;;;9.40;1.67;;;20.40;99.90;;;;;;4928153;29;20043;-86
2022/06/08 11:53:20;;;;;;;7.80;1.58;;;20.40;99.90;;;;;;4913589;29;20040;-86
2022/06/08 11:56:13;;;;;;;8.30;1.60;;;20.50;99.90;;;;;;4927821;29;20028;-86
2022/06/08 11:58:48;;;;;;;12.50;3.08;;;20.70;99.90;;;;;;4911825;29;20024;-86
2022/06/08 12:01:15;;;;;;;;;;;20.70;99.90;;;;;;4914194;29;20047;-86
2022/06/08 12:03:42;;;;;;;8.90;2.00;;;20.80;99.90;;;;;;4914042;29;20289;-86
2022/06/08 12:06:14;;;;;;;8.50;1.50;;;20.90;99.90;;;;;;4915472;29;20031;-85
2022/06/08 12:08:47;;;;;;;11.18;1.83;;;21.00;99.90;;;;;;4912466;29;20029;-86
2022/06/08 12:11:15;;;;;;;8.57;2.00;;;21.00;99.90;;;;;;4916044;29;20524;-87
2022/06/08 12:13:56;;;;;;;11.95;2.25;;;21.10;99.90;;;;;;4917061;29;20106;-87
2022/06/08 12:16:30;;;;;;;10.93;1.85;;;21.50;99.90;;;;;;4931107;29;20449;-87
2022/06/08 12:19:15;;;;;;;15.40;2.10;;;21.60;99.90;;;;;;4916803;29;20025;-88
2022/06/08 12:21:43;;;;;;;15.85;2.58;;;21.40;99.90;;;;;;4916734;29;20035;-87
2022/06/08 12:24:12;;;;;;;8.27;2.03;;;21.60;99.90;;;;;;4931290;29;20028;-87
2022/06/08 12:26:59;;;;;;;13.27;2.20;;;21.60;99.90;;;;;;4916623;29;20103;-87
2022/06/08 12:29:28;;;;;;;10.00;1.85;;;21.20;99.90;;;;;;4916877;29;20036;-87
2022/06/08 12:32:05;;;;;;;9.00;1.45;;;21.30;99.90;;;;;;4916371;29;20099;-87
2022/06/08 12:34:44;;;;;;;16.50;2.38;;;21.60;99.90;;;;;;4911341;29;20039;-87
2022/06/08 12:37:23;;;;;;;12.25;2.05;;;21.60;99.90;;;;;;4916190;29;20032;-87
2022/06/08 12:39:49;;;;;;;12.73;2.10;;;21.30;99.90;;;;;;4916201;29;20036;-87
2022/06/08 12:42:26;;;;;;;10.13;2.08;;;21.00;99.90;;;;;;4916359;29;20401;-87
2022/06/08 12:44:54;;;;;;;11.38;2.30;;;20.90;99.90;;;;;;4916477;29;20660;-88
2022/06/08 12:47:21;;;;;;;11.02;2.63;;;20.70;99.90;;;;;;4915979;29;20028;-87
2022/06/08 12:49:57;;;;;;;14.98;3.03;;;20.50;99.90;;;;;;4916195;29;20016;-87
2022/06/08 12:52:32;;;;;;;14.50;2.28;;;20.50;99.90;;;;;;4920474;29;20490;-88
2022/06/08 12:54:59;;;;;;;13.98;2.50;;;20.60;99.90;;;;;;4947584;28;20124;-87
2022/06/08 12:57:30;;;;;;;14.20;2.60;;;20.70;99.90;;;;;;4924693;29;20031;-87
2022/06/08 12:59:59;;;;;;;16.17;2.45;;;20.50;99.90;;;;;;4924912;29;20048;-87
2022/06/08 13:02:32;;;;;;;13.02;2.42;;;20.50;99.90;;;;;;4922137;29;20006;-88
2022/06/08 13:04:59;;;;;;;12.40;2.03;;;20.40;99.90;;;;;;4933033;29;20025;-88
2022/06/08 13:07:30;;;;;;;12.60;2.58;;;20.50;99.90;;;;;;4940878;29;20072;-88
2022/06/08 13:09:56;;;;;;;9.65;1.67;;;20.80;99.90;;;;;;4937099;29;20016;-88
2022/06/08 13:12:31;;;;;;;11.93;2.35;;;20.70;99.90;;;;;;4918401;29;20127;-88
2022/06/08 13:14:57;;;;;;;12.13;2.28;;;20.70;99.90;;;;;;4916011;29;20099;-88